createdAt,value
2023-02-27T00:03:49.177Z,1.60
2023-02-27T00:08:52.169Z,1.50
2023-02-27T00:13:55.178Z,1.50
2023-02-27T00:19:01.526Z,1.50
2023-02-27T00:24:05.443Z,1.50
2023-02-27T00:29:08.426Z,1.50
2023-02-27T00:34:11.570Z,1.50
2023-02-27T00:39:15.705Z,1.50
2023-02-27T00:44:19.134Z,1.40
2023-02-27T00:49:22.108Z,1.40
2023-02-27T00:54:24.917Z,1.30
2023-02-27T00:59:28.003Z,1.30
2023-02-27T01:04:30.948Z,1.30
2023-02-27T01:09:34.120Z,1.30
2023-02-27T01:14:37.385Z,1.30
2023-02-27T01:19:41.394Z,1.40
2023-02-27T01:24:44.360Z,1.40
2023-02-27T01:29:47.180Z,1.40
2023-02-27T01:34:50.478Z,1.50
2023-02-27T01:39:53.240Z,1.50
2023-02-27T01:45:13.070Z,1.60
2023-02-27T01:50:18.034Z,1.60
2023-02-27T01:55:22.703Z,1.60
2023-02-27T02:00:26.611Z,1.60
2023-02-27T02:05:30.578Z,1.60
2023-02-27T02:10:33.982Z,1.60
2023-02-27T02:15:44.702Z,1.60
2023-02-27T02:21:14.795Z,1.60
2023-02-27T02:27:23.355Z,1.60
2023-02-27T02:32:59.847Z,1.70
2023-02-27T02:38:40.214Z,1.70
2023-02-27T02:44:45.923Z,1.80
2023-02-27T02:50:16.546Z,1.80
2023-02-27T02:55:37.199Z,1.90
2023-02-27T03:01:04.486Z,1.90
2023-02-27T03:06:34.812Z,1.90
2023-02-27T03:11:45.056Z,1.90
2023-02-27T03:16:53.610Z,2.00
2023-02-27T03:22:09.010Z,2.00
2023-02-27T03:27:12.602Z,2.00
2023-02-27T03:32:52.613Z,2.00
2023-02-27T03:38:16.610Z,2.00
2023-02-27T03:43:35.987Z,2.00
2023-02-27T03:48:44.656Z,2.00
2023-02-27T03:54:35.272Z,2.00
2023-02-27T03:59:38.844Z,2.00
2023-02-27T04:04:41.916Z,2.10
2023-02-27T04:10:12.554Z,2.10
2023-02-27T04:15:21.562Z,2.10
2023-02-27T04:20:44.559Z,2.00
2023-02-27T04:26:14.003Z,2.00
2023-02-27T04:31:30.555Z,2.00
2023-02-27T04:36:49.162Z,1.90
2023-02-27T04:42:23.934Z,1.90
2023-02-27T04:47:35.192Z,1.90
2023-02-27T04:52:44.879Z,1.90
2023-02-27T04:58:01.915Z,1.90
2023-02-27T05:03:17.131Z,1.90
2023-02-27T05:09:10.009Z,1.90
2023-02-27T05:14:21.888Z,1.90
2023-02-27T05:19:24.871Z,1.90
2023-02-27T05:24:43.507Z,1.90
2023-02-27T05:29:51.467Z,1.80
2023-02-27T05:35:20.918Z,1.70
2023-02-27T05:40:31.301Z,1.70
2023-02-27T05:45:37.776Z,1.70
2023-02-27T05:50:44.063Z,1.60
2023-02-27T05:55:56.683Z,1.60
2023-02-27T06:01:08.107Z,1.60
2023-02-27T06:06:18.261Z,1.60
2023-02-27T06:11:21.392Z,1.60
2023-02-27T06:16:24.404Z,1.60
2023-02-27T06:21:27.387Z,1.60
2023-02-27T06:26:30.348Z,1.70
2023-02-27T06:31:33.350Z,1.80
2023-02-27T06:36:36.381Z,2.00
2023-02-27T06:41:39.323Z,2.10
2023-02-27T06:46:42.428Z,2.20
2023-02-27T06:51:45.564Z,2.30
2023-02-27T06:56:48.531Z,2.40
2023-02-27T07:01:52.022Z,2.50
2023-02-27T07:07:34.352Z,2.70
2023-02-27T07:12:17.779Z,2.90
2023-02-27T07:17:22.549Z,3.00
2023-02-27T07:22:25.416Z,3.20
2023-02-27T07:27:28.184Z,3.20
2023-02-27T07:32:31.194Z,3.30
2023-02-27T07:37:34.175Z,3.40
2023-02-27T07:42:37.226Z,3.50
2023-02-27T07:47:40.054Z,3.50
2023-02-27T07:52:44.443Z,3.60
2023-02-27T07:57:47.446Z,3.70
2023-02-27T08:02:50.630Z,3.90
2023-02-27T08:07:53.697Z,4.10
2023-02-27T08:12:56.913Z,4.40
2023-02-27T08:18:00.041Z,4.60
2023-02-27T08:23:03.084Z,4.90
2023-02-27T08:28:06.060Z,5.00
2023-02-27T08:33:08.987Z,5.00
2023-02-27T08:38:11.909Z,4.90
2023-02-27T08:43:14.693Z,4.80
2023-02-27T08:48:18.619Z,4.70
2023-02-27T08:53:22.999Z,4.60
2023-02-27T08:58:26.136Z,4.50
2023-02-27T09:03:29.244Z,4.70
2023-02-27T09:08:32.688Z,4.70
2023-02-27T09:13:35.667Z,4.90
2023-02-27T09:18:38.641Z,4.90
2023-02-27T09:23:41.948Z,5.10
2023-02-27T09:28:45.084Z,5.40
2023-02-27T09:33:48.090Z,5.60
2023-02-27T09:38:51.126Z,5.70
2023-02-27T09:43:54.049Z,5.90
2023-02-27T09:49:04.922Z,5.90
2023-02-27T09:54:10.492Z,5.80
2023-02-27T09:59:25.269Z,5.80
2023-02-27T10:04:50.998Z,5.80
2023-02-27T10:10:25.867Z,5.70
2023-02-27T10:15:39.207Z,5.70
2023-02-27T10:21:02.787Z,5.70
2023-02-27T10:26:07.694Z,5.80
2023-02-27T10:31:21.455Z,5.90
2023-02-27T10:36:33.549Z,6.00
2023-02-27T10:41:39.960Z,6.00
2023-02-27T10:46:43.461Z,6.00
2023-02-27T10:52:04.418Z,6.00
2023-02-27T10:57:37.388Z,6.40
2023-02-27T11:02:43.749Z,6.70
2023-02-27T11:07:47.205Z,6.60
2023-02-27T11:13:18.610Z,6.60
2023-02-27T11:18:32.042Z,6.50
2023-02-27T11:23:35.891Z,6.40
2023-02-27T11:28:38.736Z,6.60
2023-02-27T11:33:54.910Z,6.80
2023-02-27T11:38:58.026Z,7.10
2023-02-27T11:44:05.632Z,7.50
2023-02-27T11:49:34.849Z,8.00
2023-02-27T11:54:58.853Z,8.20
2023-02-27T12:00:26.981Z,8.30
2023-02-27T12:05:40.298Z,8.10
2023-02-27T12:11:11.297Z,7.80
2023-02-27T12:16:39.169Z,7.50
2023-02-27T12:21:52.190Z,7.50
2023-02-27T12:27:22.304Z,7.50
2023-02-27T12:32:45.239Z,7.50
2023-02-27T12:37:48.598Z,7.60
2023-02-27T12:43:03.094Z,7.70
2023-02-27T12:48:41.073Z,7.70
2023-02-27T12:53:57.605Z,7.70
2023-02-27T12:59:09.444Z,7.80
2023-02-27T13:04:30.413Z,7.90
2023-02-27T13:10:01.226Z,7.90
2023-02-27T13:15:19.030Z,7.90
2023-02-27T13:20:22.019Z,7.90
2023-02-27T13:25:26.016Z,7.60
2023-02-27T13:30:40.878Z,7.30
2023-02-27T13:36:13.297Z,7.10
2023-02-27T13:41:25.442Z,6.90
2023-02-27T13:46:33.263Z,6.90
2023-02-27T13:51:36.140Z,7.00
2023-02-27T13:56:45.409Z,7.00
2023-02-27T14:01:58.186Z,7.10
2023-02-27T14:07:15.145Z,7.10
2023-02-27T14:12:43.982Z,7.10
2023-02-27T14:17:56.818Z,7.00
2023-02-27T14:23:17.712Z,6.90
2023-02-27T14:28:32.056Z,6.90
2023-02-27T14:33:45.431Z,6.70
2023-02-27T14:38:49.439Z,6.70
2023-02-27T14:43:57.704Z,6.80
2023-02-27T14:49:05.437Z,6.90
2023-02-27T14:54:28.224Z,6.90
2023-02-27T14:59:34.631Z,7.00
2023-02-27T15:04:37.490Z,7.00
2023-02-27T15:09:44.849Z,6.90
2023-02-27T15:14:57.368Z,6.80
2023-02-27T15:20:00.524Z,6.60
2023-02-27T15:25:07.039Z,6.50
2023-02-27T15:30:21.829Z,6.30
2023-02-27T15:35:42.774Z,6.20
2023-02-27T15:40:45.756Z,6.00
2023-02-27T15:45:50.251Z,5.80
2023-02-27T15:51:04.406Z,5.70
2023-02-27T15:56:13.399Z,5.50
2023-02-27T16:01:35.192Z,5.30
2023-02-27T16:06:40.973Z,5.20
2023-02-27T16:11:44.004Z,4.90
2023-02-27T16:16:56.454Z,4.70
2023-02-27T16:22:18.190Z,4.60
2023-02-27T16:27:28.753Z,4.40
2023-02-27T16:32:41.482Z,4.10
2023-02-27T16:37:46.274Z,3.90
2023-02-27T16:42:50.509Z,3.60
2023-02-27T16:47:59.323Z,3.30
2023-02-27T16:53:02.305Z,3.10
2023-02-27T16:58:06.826Z,2.80
2023-02-27T17:03:09.897Z,2.60
2023-02-27T17:08:12.899Z,2.40
2023-02-27T17:13:17.373Z,2.30
2023-02-27T17:18:20.627Z,2.20
2023-02-27T17:23:23.781Z,2.00
2023-02-27T17:28:27.232Z,1.80
2023-02-27T17:33:31.832Z,1.70
2023-02-27T17:38:35.709Z,1.50
2023-02-27T17:43:39.927Z,1.40
2023-02-27T17:48:42.934Z,1.30
2023-02-27T17:53:46.140Z,1.10
2023-02-27T17:58:49.105Z,1.00
2023-02-27T18:03:54.330Z,0.90
2023-02-27T18:08:57.904Z,0.70
2023-02-27T18:14:00.809Z,0.60
2023-02-27T18:19:06.306Z,0.50
2023-02-27T18:24:10.689Z,0.40
2023-02-27T18:29:16.311Z,0.30
2023-02-27T18:34:21.280Z,0.20
2023-02-27T18:39:24.380Z,0.20
2023-02-27T18:44:27.457Z,0.20
2023-02-27T18:49:30.376Z,0.20
2023-02-27T18:54:33.474Z,0.20
2023-02-27T18:59:37.505Z,0.10
2023-02-27T19:04:40.714Z,0.10
2023-02-27T19:09:44.690Z,0.00
2023-02-27T19:14:47.707Z,0.00
2023-02-27T19:19:51.070Z,-0.10
2023-02-27T19:24:54.193Z,-0.20
2023-02-27T19:29:57.222Z,-0.20
2023-02-27T19:35:00.931Z,-0.20
2023-02-27T19:40:04.183Z,-0.20
2023-02-27T19:45:07.954Z,-0.20
2023-02-27T19:50:11.771Z,-0.20
2023-02-27T19:55:15.937Z,-0.20
2023-02-27T20:00:19.941Z,-0.20
2023-02-27T20:05:25.086Z,-0.30
2023-02-27T20:10:29.124Z,-0.30
2023-02-27T20:15:31.879Z,-0.40
2023-02-27T20:20:34.832Z,-0.40
2023-02-27T20:25:37.784Z,-0.40
2023-02-27T20:30:40.771Z,-0.50
2023-02-27T20:35:43.848Z,-0.40
2023-02-27T20:40:46.834Z,-0.40
2023-02-27T20:45:50.002Z,-0.30
2023-02-27T20:50:52.770Z,-0.30
2023-02-27T20:55:55.802Z,-0.30
2023-02-27T21:00:58.836Z,-0.30
2023-02-27T21:06:02.833Z,-0.40
2023-02-27T21:11:16.048Z,-0.50
2023-02-27T21:16:19.773Z,-0.60
2023-02-27T21:21:28.092Z,-0.70
2023-02-27T21:26:38.303Z,-0.80
2023-02-27T21:31:45.225Z,-0.90
2023-02-27T21:36:49.199Z,-1.00
2023-02-27T21:41:52.954Z,-1.00
2023-02-27T21:46:56.233Z,-1.10
2023-02-27T21:51:58.989Z,-1.10
2023-02-27T21:57:03.231Z,-1.20
2023-02-27T22:02:06.022Z,-1.20
2023-02-27T22:07:11.383Z,-1.30
2023-02-27T22:12:16.204Z,-1.30
2023-02-27T22:17:19.279Z,-1.30
2023-02-27T22:22:22.194Z,-1.30
2023-02-27T22:27:25.229Z,-1.20
2023-02-27T22:32:28.855Z,-1.20
2023-02-27T22:37:31.932Z,-1.10
2023-02-27T22:42:34.820Z,-1.00
2023-02-27T22:47:37.730Z,-1.00
2023-02-27T22:52:40.629Z,-1.00
2023-02-27T22:57:43.733Z,-0.90
2023-02-27T23:02:46.590Z,-0.90
2023-02-27T23:07:50.005Z,-0.80
2023-02-27T23:12:52.742Z,-0.70
2023-02-27T23:17:58.535Z,-0.60
2023-02-27T23:23:01.643Z,-0.60
2023-02-27T23:28:06.091Z,-0.50
2023-02-27T23:33:08.972Z,-0.40
2023-02-27T23:38:11.931Z,-0.40
2023-02-27T23:43:33.511Z,-0.30
2023-02-27T23:48:36.926Z,-0.30
2023-02-27T23:53:41.708Z,-0.30
2023-02-27T23:58:46.545Z,-0.30
